createdAt,value
2017-03-14T00:00:15.571Z,97.36
2017-03-14T00:01:16.834Z,97.78
2017-03-14T00:02:18.058Z,97.64
2017-03-14T00:03:19.304Z,97.45
2017-03-14T00:04:20.577Z,97.26
2017-03-14T00:05:21.832Z,97.26
2017-03-14T00:06:23.073Z,97.36
2017-03-14T00:07:24.316Z,97.74
2017-03-14T00:08:25.551Z,97.74
2017-03-14T00:09:26.851Z,97.55
2017-03-14T00:10:28.268Z,97.64
2017-03-14T00:11:29.410Z,98.02
2017-03-14T00:12:30.645Z,97.55
2017-03-14T00:13:31.916Z,97.64
2017-03-14T00:14:33.153Z,97.92
2017-03-14T00:15:34.401Z,97.92
2017-03-14T00:16:35.657Z,97.83
2017-03-14T00:17:36.873Z,98.02
2017-03-14T00:18:38.110Z,97.26
2017-03-14T00:19:39.348Z,97.26
2017-03-14T00:20:40.606Z,97.92
2017-03-14T00:21:41.849Z,97.92
2017-03-14T00:22:43.246Z,97.36
2017-03-14T00:23:44.464Z,97.55
2017-03-14T00:24:45.719Z,97.36
2017-03-14T00:25:46.946Z,97.83
2017-03-14T00:26:48.186Z,97.64
2017-03-14T00:27:49.527Z,97.64
2017-03-14T00:28:50.894Z,97.64
2017-03-14T00:29:52.131Z,98.02
2017-03-14T00:30:53.370Z,98.02
2017-03-14T00:31:54.601Z,97.83
2017-03-14T00:32:55.890Z,97.74
2017-03-14T00:33:57.132Z,97.64
2017-03-14T00:34:58.358Z,97.64
2017-03-14T00:35:59.595Z,97.64
2017-03-14T00:37:00.830Z,97.83
2017-03-14T00:38:02.084Z,97.74
2017-03-14T00:39:03.332Z,97.83
2017-03-14T00:40:04.593Z,97.83
2017-03-14T00:41:05.955Z,97.83
2017-03-14T00:42:07.191Z,97.83
2017-03-14T00:43:08.420Z,97.74
2017-03-14T00:44:09.659Z,97.92
2017-03-14T00:45:10.930Z,97.92
2017-03-14T00:46:12.147Z,97.92
2017-03-14T00:47:13.387Z,97.92
2017-03-14T00:48:14.722Z,97.83
2017-03-14T00:49:15.918Z,97.83
2017-03-14T00:50:17.207Z,97.45
2017-03-14T00:51:18.462Z,97.64
2017-03-14T00:52:19.808Z,97.64
2017-03-14T00:53:21.163Z,97.45
2017-03-14T00:54:22.422Z,97.26
2017-03-14T00:55:23.640Z,97.45
2017-03-14T00:56:24.872Z,97.17
2017-03-14T00:57:26.111Z,97.74
2017-03-14T00:58:27.368Z,97.26
2017-03-14T00:59:28.617Z,97.45
2017-03-14T01:00:29.849Z,97.26
2017-03-14T01:01:31.176Z,97.45
2017-03-14T01:02:32.452Z,97.45
2017-03-14T01:03:33.645Z,97.26
2017-03-14T01:04:34.888Z,97.26
2017-03-14T01:05:36.165Z,97.45
2017-03-14T01:06:37.472Z,97.26
2017-03-14T01:07:38.713Z,97.26
2017-03-14T01:08:39.954Z,97.36
2017-03-14T01:09:41.186Z,97.74
2017-03-14T01:10:42.428Z,97.55
2017-03-14T01:11:43.697Z,97.45
2017-03-14T01:12:44.997Z,97.07
2017-03-14T01:13:46.252Z,97.17
2017-03-14T01:14:47.474Z,97.83
2017-03-14T01:15:48.714Z,97.83
2017-03-14T01:16:49.952Z,97.74
2017-03-14T01:17:51.211Z,96.88
2017-03-14T01:18:52.456Z,97.64
2017-03-14T01:19:53.705Z,97.26
2017-03-14T01:20:55.030Z,97.26
2017-03-14T01:21:56.272Z,96.97
2017-03-14T01:22:57.630Z,97.36
2017-03-14T01:23:58.868Z,97.45
2017-03-14T01:25:00.227Z,97.45
2017-03-14T01:26:01.488Z,97.55
2017-03-14T01:27:02.817Z,97.45
2017-03-14T01:28:04.047Z,97.07
2017-03-14T01:29:05.285Z,96.88
2017-03-14T01:30:06.527Z,96.88
2017-03-14T01:31:07.835Z,96.78
2017-03-14T01:32:09.066Z,96.88
2017-03-14T01:33:10.410Z,97.17
2017-03-14T01:34:11.648Z,96.88
2017-03-14T01:35:12.888Z,97.07
2017-03-14T01:36:14.162Z,96.88
2017-03-14T01:37:15.489Z,96.88
2017-03-14T01:38:16.794Z,96.88
2017-03-14T01:39:18.023Z,96.88
2017-03-14T01:40:19.278Z,96.12
2017-03-14T01:41:20.544Z,96.41
2017-03-14T01:42:21.786Z,96.03
2017-03-14T01:43:23.024Z,96.12
2017-03-14T01:44:24.285Z,96.31
2017-03-14T01:45:25.551Z,96.12
2017-03-14T01:46:26.787Z,96.03
2017-03-14T01:47:28.017Z,96.22
2017-03-14T01:48:29.260Z,96.69
2017-03-14T01:49:30.517Z,96.03
2017-03-14T01:50:31.740Z,96.31
2017-03-14T01:51:32.979Z,96.22
2017-03-14T01:52:34.224Z,95.65
2017-03-14T01:53:35.483Z,96.12
2017-03-14T01:54:36.732Z,95.84
2017-03-14T01:55:38.037Z,95.84
2017-03-14T01:56:39.482Z,95.07
2017-03-14T01:57:40.692Z,94.79
2017-03-14T01:58:41.929Z,95.07
2017-03-14T01:59:43.201Z,94.51
2017-03-14T02:00:44.420Z,94.6
2017-03-14T02:01:45.651Z,94.23
2017-03-14T02:02:47.014Z,94.42
2017-03-14T02:03:48.231Z,94.23
2017-03-14T02:04:49.461Z,94.42
2017-03-14T02:05:50.765Z,93.94
2017-03-14T02:06:51.993Z,94.32
2017-03-14T02:07:53.290Z,93.94
2017-03-14T02:08:54.572Z,94.03
2017-03-14T02:09:55.823Z,94.32
2017-03-14T02:10:57.072Z,94.23
2017-03-14T02:11:58.304Z,93.84
2017-03-14T02:12:59.561Z,94.23
2017-03-14T02:14:00.777Z,93.94
2017-03-14T02:15:02.015Z,94.03
2017-03-14T02:16:03.404Z,93.94
2017-03-14T02:17:04.646Z,94.42
2017-03-14T02:18:05.905Z,94.51
2017-03-14T02:19:07.109Z,94.51
2017-03-14T02:20:08.367Z,94.23
2017-03-14T02:21:09.621Z,94.03
2017-03-14T02:22:10.864Z,94.42
2017-03-14T02:23:12.095Z,94.51
2017-03-14T02:24:13.328Z,94.32
2017-03-14T02:25:14.558Z,94.42
2017-03-14T02:26:15.794Z,94.32
2017-03-14T02:27:17.037Z,94.32
2017-03-14T02:28:18.306Z,94.32
2017-03-14T02:29:19.533Z,94.42
2017-03-14T02:30:20.777Z,94.32
2017-03-14T02:31:22.005Z,94.32
2017-03-14T02:32:23.234Z,94.32
2017-03-14T02:33:24.477Z,94.23
2017-03-14T02:34:25.699Z,93.94
2017-03-14T02:35:27.007Z,94.42
2017-03-14T02:36:28.232Z,94.7
2017-03-14T02:37:29.467Z,94.6
2017-03-14T02:38:30.708Z,94.7
2017-03-14T02:39:31.966Z,94.6
2017-03-14T02:40:33.234Z,94.51
2017-03-14T02:41:34.471Z,94.42
2017-03-14T02:42:35.786Z,94.42
2017-03-14T02:43:37.029Z,94.6
2017-03-14T02:44:38.267Z,94.6
2017-03-14T02:45:39.500Z,94.42
2017-03-14T02:46:40.721Z,95.07
2017-03-14T02:47:41.958Z,94.89
2017-03-14T02:48:43.251Z,94.51
2017-03-14T02:49:44.619Z,94.6
2017-03-14T02:50:45.827Z,94.51
2017-03-14T02:51:47.062Z,94.13
2017-03-14T02:52:48.289Z,94.42
2017-03-14T02:53:49.528Z,94.03
2017-03-14T02:54:50.850Z,94.03
2017-03-14T02:55:52.071Z,94.32
2017-03-14T02:56:53.333Z,94.32
2017-03-14T02:57:54.570Z,94.32
2017-03-14T02:58:55.831Z,94.13
2017-03-14T02:59:57.063Z,94.23
2017-03-14T03:00:58.316Z,94.6
2017-03-14T03:01:59.559Z,94.42
2017-03-14T03:03:00.789Z,94.51
2017-03-14T03:04:02.044Z,94.6
2017-03-14T03:05:03.266Z,94.79
2017-03-14T03:06:04.494Z,94.6
2017-03-14T03:07:05.735Z,94.79
2017-03-14T03:08:07.090Z,94.98
2017-03-14T03:09:08.325Z,94.98
2017-03-14T03:10:09.571Z,95.31
2017-03-14T03:11:10.812Z,95.22
2017-03-14T03:12:12.040Z,95.6
2017-03-14T03:13:13.292Z,95.98
2017-03-14T03:14:14.537Z,96.08
2017-03-14T03:15:15.819Z,96.08
2017-03-14T03:16:17.057Z,95.6
2017-03-14T03:17:18.315Z,96.08
2017-03-14T03:18:19.589Z,96.08
2017-03-14T03:19:20.816Z,96.73
2017-03-14T03:20:22.075Z,97.21
2017-03-14T03:21:23.322Z,96.83
2017-03-14T03:22:24.561Z,96.73
2017-03-14T03:23:25.790Z,97.12
2017-03-14T03:24:27.038Z,97.12
2017-03-14T03:25:28.258Z,97.31
2017-03-14T03:26:29.541Z,97.02
2017-03-14T03:27:30.818Z,97.02
2017-03-14T03:28:32.174Z,97.31
2017-03-14T03:29:33.447Z,97.21
2017-03-14T03:30:34.690Z,97.21
2017-03-14T03:31:35.921Z,97.02
2017-03-14T03:32:37.317Z,97.12
2017-03-14T03:33:38.536Z,97.21
2017-03-14T03:34:39.809Z,97.5
2017-03-14T03:35:41.036Z,97.31
2017-03-14T03:36:42.262Z,97.21
2017-03-14T03:37:43.565Z,96.88
2017-03-14T03:38:44.793Z,97.07
2017-03-14T03:39:46.008Z,97.36
2017-03-14T03:40:47.339Z,96.73
2017-03-14T03:41:48.597Z,97.12
2017-03-14T03:42:49.821Z,97.07
2017-03-14T03:43:51.099Z,96.78
2017-03-14T03:44:52.329Z,96.88
2017-03-14T03:45:53.589Z,97.45
2017-03-14T03:46:54.905Z,97.07
2017-03-14T03:47:56.168Z,96.88
2017-03-14T03:48:57.370Z,96.41
2017-03-14T03:49:58.610Z,96.97
2017-03-14T03:50:59.838Z,97.17
2017-03-14T03:52:01.082Z,97.17
2017-03-14T03:53:02.315Z,96.5
2017-03-14T03:54:03.569Z,96.5
2017-03-14T03:55:04.818Z,96.78
2017-03-14T03:56:06.062Z,96.88
2017-03-14T03:57:07.332Z,96.59
2017-03-14T03:58:08.560Z,96.31
2017-03-14T03:59:09.878Z,96.41
2017-03-14T04:00:11.175Z,96.31
2017-03-14T04:01:12.428Z,96.03
2017-03-14T04:02:13.651Z,96.59
2017-03-14T04:03:14.888Z,96.22
2017-03-14T04:04:16.147Z,96.41
2017-03-14T04:05:17.435Z,95.84
2017-03-14T04:06:18.762Z,95.84
2017-03-14T04:07:19.894Z,96.03
2017-03-14T04:08:21.135Z,95.93
2017-03-14T04:09:22.369Z,96.12
2017-03-14T04:10:23.612Z,96.22
2017-03-14T04:11:24.937Z,95.84
2017-03-14T04:12:26.145Z,95.84
2017-03-14T04:13:27.386Z,95.46
2017-03-14T04:14:28.619Z,95.36
2017-03-14T04:15:29.864Z,95.55
2017-03-14T04:16:31.111Z,95.36
2017-03-14T04:17:32.347Z,95.65
2017-03-14T04:18:33.610Z,95.07
2017-03-14T04:19:34.867Z,94.98
2017-03-14T04:20:36.104Z,94.98
2017-03-14T04:21:37.337Z,94.98
2017-03-14T04:22:38.603Z,94.98
2017-03-14T04:23:39.835Z,94.6
2017-03-14T04:24:41.082Z,94.42
2017-03-14T04:25:42.431Z,94.42
2017-03-14T04:26:43.742Z,94.23
2017-03-14T04:27:44.979Z,94.13
2017-03-14T04:28:46.210Z,94.03
2017-03-14T04:29:47.499Z,93.75
2017-03-14T04:30:48.779Z,93.84
2017-03-14T04:31:50.003Z,93.27
2017-03-14T04:32:51.230Z,93.84
2017-03-14T04:33:52.473Z,93.37
2017-03-14T04:34:53.734Z,93.56
2017-03-14T04:35:54.967Z,92.99
2017-03-14T04:36:56.236Z,92.99
2017-03-14T04:37:57.582Z,92.9
2017-03-14T04:38:58.840Z,93.27
2017-03-14T04:40:00.086Z,93.08
2017-03-14T04:41:01.384Z,92.9
2017-03-14T04:42:02.581Z,92.9
2017-03-14T04:43:03.851Z,93.18
2017-03-14T04:44:05.102Z,92.42
2017-03-14T04:45:06.345Z,92.71
2017-03-14T04:46:07.615Z,92.8
2017-03-14T04:47:08.895Z,92.71
2017-03-14T04:48:10.147Z,92.33
2017-03-14T04:49:11.372Z,92.52
2017-03-14T04:50:12.605Z,92.42
2017-03-14T04:51:13.877Z,91.94
2017-03-14T04:52:15.249Z,92.14
2017-03-14T04:53:16.490Z,92.14
2017-03-14T04:54:17.721Z,92.23
2017-03-14T04:55:18.979Z,92.23
2017-03-14T04:56:20.208Z,92.14
2017-03-14T04:57:21.450Z,91.94
2017-03-14T04:58:22.708Z,92.14
2017-03-14T04:59:23.947Z,91.94
2017-03-14T05:00:25.185Z,92.42
2017-03-14T05:01:26.422Z,92.23
2017-03-14T05:02:27.738Z,92.71
2017-03-14T05:03:29.038Z,92.99
2017-03-14T05:04:30.271Z,92.99
2017-03-14T05:05:31.651Z,92.8
2017-03-14T05:06:32.888Z,93.27
2017-03-14T05:07:34.139Z,93.08
2017-03-14T05:08:35.426Z,92.99
2017-03-14T05:09:36.650Z,93.18
2017-03-14T05:10:37.900Z,92.9
2017-03-14T05:11:39.244Z,93.08
2017-03-14T05:12:40.506Z,93.37
2017-03-14T05:13:41.747Z,93.37
2017-03-14T05:14:42.988Z,93.84
2017-03-14T05:15:44.221Z,93.84
2017-03-14T05:16:45.604Z,93.84
2017-03-14T05:17:46.900Z,94.03
2017-03-14T05:18:48.113Z,93.65
2017-03-14T05:19:49.351Z,93.37
2017-03-14T05:20:50.588Z,93.94
2017-03-14T05:21:51.861Z,93.46
2017-03-14T05:22:53.246Z,93.56
2017-03-14T05:23:54.517Z,93.56
2017-03-14T05:24:55.756Z,93.56
2017-03-14T05:25:57.011Z,93.65
2017-03-14T05:26:58.241Z,93.27
2017-03-14T05:27:59.463Z,93.94
2017-03-14T05:29:00.756Z,93.65
2017-03-14T05:30:01.983Z,93.84
2017-03-14T05:31:03.223Z,93.84
2017-03-14T05:32:04.473Z,93.56
2017-03-14T05:33:05.710Z,93.94
2017-03-14T05:34:06.948Z,93.75
2017-03-14T05:35:08.353Z,93.37
2017-03-14T05:36:09.588Z,93.46
2017-03-14T05:37:10.889Z,93.37
2017-03-14T05:38:12.118Z,93.37
2017-03-14T05:39:13.343Z,93.27
2017-03-14T05:40:14.634Z,93.18
2017-03-14T05:41:15.881Z,93.18
2017-03-14T05:42:17.152Z,93.37
2017-03-14T05:43:18.508Z,92.8
2017-03-14T05:44:19.650Z,92.9
2017-03-14T05:45:20.917Z,92.61
2017-03-14T05:46:22.118Z,92.61
2017-03-14T05:47:23.429Z,92.52
2017-03-14T05:48:24.666Z,92.61
2017-03-14T05:49:25.935Z,92.71
2017-03-14T05:50:27.192Z,91.94
2017-03-14T05:51:28.433Z,92.61
2017-03-14T05:52:29.673Z,91.85
2017-03-14T05:53:30.905Z,91.94
2017-03-14T05:54:32.152Z,92.04
2017-03-14T05:55:33.409Z,92.14
2017-03-14T05:56:34.648Z,92.14
2017-03-14T05:57:35.889Z,92.14
2017-03-14T05:58:37.150Z,92.04
2017-03-14T05:59:38.367Z,92.42
2017-03-14T06:00:39.622Z,91.56
2017-03-14T06:01:40.945Z,91.85
2017-03-14T06:02:42.199Z,91.38
2017-03-14T06:03:43.442Z,91.47
2017-03-14T06:04:44.666Z,91.56
2017-03-14T06:05:45.980Z,91.56
2017-03-14T06:06:47.272Z,91.47
2017-03-14T06:07:48.517Z,91.28
2017-03-14T06:08:49.789Z,91.38
2017-03-14T06:09:51.015Z,91.38
2017-03-14T06:10:52.258Z,91
2017-03-14T06:11:53.489Z,91.38
2017-03-14T06:12:54.732Z,91.38
2017-03-14T06:13:55.969Z,91.47
2017-03-14T06:14:57.395Z,91.47
2017-03-14T06:15:58.603Z,91.38
2017-03-14T06:16:59.840Z,91.19
2017-03-14T06:18:01.073Z,91.28
2017-03-14T06:19:02.313Z,91.28
2017-03-14T06:20:03.661Z,91.28
2017-03-14T06:21:04.935Z,90.9
2017-03-14T06:22:06.153Z,90.62
2017-03-14T06:23:07.389Z,90.81
2017-03-14T06:24:08.636Z,90.71
2017-03-14T06:25:09.873Z,90.71
2017-03-14T06:26:11.224Z,90.71
2017-03-14T06:27:12.408Z,90.33
2017-03-14T06:28:13.676Z,90.24
2017-03-14T06:29:14.919Z,90.57
2017-03-14T06:30:16.126Z,90.24
2017-03-14T06:31:17.357Z,90.24
2017-03-14T06:32:18.609Z,90.43
2017-03-14T06:33:19.855Z,90.43
2017-03-14T06:34:21.182Z,90.71
2017-03-14T06:35:22.439Z,90.33
2017-03-14T06:36:23.654Z,90.24
2017-03-14T06:37:24.887Z,90.52
2017-03-14T06:38:26.124Z,90.28
2017-03-14T06:39:27.467Z,90.85
2017-03-14T06:40:28.725Z,90.71
2017-03-14T06:41:29.956Z,90.28
2017-03-14T06:42:31.213Z,90.24
2017-03-14T06:43:32.443Z,90.47
2017-03-14T06:44:33.672Z,90.28
2017-03-14T06:45:34.923Z,90.09
2017-03-14T06:46:36.396Z,90.57
2017-03-14T06:47:37.641Z,90.28
2017-03-14T06:48:38.897Z,89.33
2017-03-14T06:49:40.118Z,89.43
2017-03-14T06:50:41.528Z,89.62
2017-03-14T06:51:42.749Z,89.81
2017-03-14T06:52:44.046Z,89.62
2017-03-14T06:53:45.280Z,89.62
2017-03-14T06:54:46.515Z,89.33
2017-03-14T06:55:47.886Z,89.05
2017-03-14T06:56:49.251Z,88.86
2017-03-14T06:57:50.432Z,88.86
2017-03-14T06:58:51.749Z,88.86
2017-03-14T06:59:52.994Z,88.39
2017-03-14T07:00:54.240Z,88.29
2017-03-14T07:01:55.519Z,88.2
2017-03-14T07:02:56.768Z,87.62
2017-03-14T07:03:58.087Z,86.91
2017-03-14T07:04:59.335Z,86.43
2017-03-14T07:06:00.618Z,85.77
2017-03-14T07:07:01.855Z,85.2
2017-03-14T07:08:03.314Z,84.53
2017-03-14T07:09:04.570Z,84.39
2017-03-14T07:10:05.795Z,83.44
2017-03-14T07:11:07.095Z,83.34
2017-03-14T07:12:08.339Z,82.87
2017-03-14T07:13:09.599Z,82.49
2017-03-14T07:14:10.819Z,82.1
2017-03-14T07:15:12.055Z,82.01
2017-03-14T07:16:13.298Z,82.01
2017-03-14T07:17:14.539Z,82.29
2017-03-14T07:18:15.795Z,81.54
2017-03-14T07:19:17.034Z,81.35
2017-03-14T07:20:18.245Z,80.68
2017-03-14T07:21:19.628Z,80.68
2017-03-14T07:22:20.842Z,80.63
2017-03-14T07:23:22.154Z,80.34
2017-03-14T07:24:23.484Z,80.34
2017-03-14T07:25:24.702Z,79.2
2017-03-14T07:26:26.003Z,79.11
2017-03-14T07:27:27.335Z,78.77
2017-03-14T07:28:28.582Z,77.91
2017-03-14T07:29:29.828Z,76.23
2017-03-14T07:30:31.078Z,75.57
2017-03-14T07:31:32.327Z,73.51
2017-03-14T07:32:33.577Z,72.08
2017-03-14T07:33:34.811Z,70.69
2017-03-14T07:34:36.059Z,69.58
2017-03-14T07:35:37.482Z,67.99
2017-03-14T07:36:38.831Z,66.31
2017-03-14T07:37:40.050Z,63.76
2017-03-14T07:38:41.297Z,62.71
2017-03-14T07:39:42.558Z,61.95
2017-03-14T07:40:43.782Z,61.66
2017-03-14T07:41:45.028Z,61.73
2017-03-14T07:42:46.267Z,62.4
2017-03-14T07:43:47.507Z,63.13
2017-03-14T07:44:48.746Z,64.18
2017-03-14T07:45:49.995Z,64.62
2017-03-14T07:46:51.268Z,65.86
2017-03-14T07:47:52.528Z,66.78
2017-03-14T07:48:53.765Z,67.55
2017-03-14T07:49:55.016Z,68.94
2017-03-14T07:50:56.250Z,69.42
2017-03-14T07:51:57.549Z,70.27
2017-03-14T07:52:58.814Z,70.52
2017-03-14T07:54:00.077Z,72.05
2017-03-14T07:55:01.376Z,72.33
2017-03-14T07:56:02.592Z,73.38
2017-03-14T07:57:03.808Z,74.2
2017-03-14T07:58:05.048Z,74.29
2017-03-14T07:59:06.314Z,74.48
2017-03-14T08:00:07.563Z,74.67
2017-03-14T08:01:08.782Z,75.15
2017-03-14T08:02:10.144Z,74.96
2017-03-14T08:03:11.373Z,75.34
2017-03-14T08:04:12.616Z,75.62
2017-03-14T08:05:13.859Z,75.53
2017-03-14T08:06:15.094Z,75.43
2017-03-14T08:07:16.358Z,76.01
2017-03-14T08:08:17.805Z,76.1
2017-03-14T08:09:19.045Z,76.2
2017-03-14T08:10:20.336Z,75.72
2017-03-14T08:11:21.536Z,75.53
2017-03-14T08:12:22.776Z,75.24
2017-03-14T08:13:24.106Z,75.81
2017-03-14T08:14:25.373Z,75.91
2017-03-14T08:15:26.626Z,75.81
2017-03-14T08:16:27.891Z,75.91
2017-03-14T08:17:29.130Z,75.91
2017-03-14T08:18:30.461Z,75.43
2017-03-14T08:19:31.731Z,76.2
2017-03-14T08:20:32.969Z,76.01
2017-03-14T08:21:34.210Z,76.2
2017-03-14T08:22:35.453Z,75.72
2017-03-14T08:23:36.728Z,76.1
2017-03-14T08:24:38.064Z,76.01
2017-03-14T08:25:39.383Z,75.91
2017-03-14T08:26:40.603Z,75.53
2017-03-14T08:27:41.862Z,75.05
2017-03-14T08:28:43.100Z,74.62
2017-03-14T08:29:44.362Z,74.99
2017-03-14T08:30:45.667Z,74.43
2017-03-14T08:31:46.891Z,74.04
2017-03-14T08:32:48.137Z,74.33
2017-03-14T08:33:49.430Z,73.85
2017-03-14T08:34:50.698Z,73.76
2017-03-14T08:35:51.940Z,73.66
2017-03-14T08:36:53.176Z,73.38
2017-03-14T08:37:54.425Z,73.38
2017-03-14T08:38:55.687Z,73.19
2017-03-14T08:39:56.941Z,72.81
2017-03-14T08:40:58.206Z,72.81
2017-03-14T08:41:59.479Z,72.05
2017-03-14T08:43:00.722Z,72.33
2017-03-14T08:44:02.077Z,72.33
2017-03-14T08:45:03.351Z,72.33
2017-03-14T08:46:04.675Z,71.95
2017-03-14T08:47:05.832Z,71.95
2017-03-14T08:48:07.070Z,71.76
2017-03-14T08:49:08.336Z,72.24
2017-03-14T08:50:09.565Z,72.42
2017-03-14T08:51:10.805Z,71.95
2017-03-14T08:52:12.118Z,72.14
2017-03-14T08:53:13.362Z,72.33
2017-03-14T08:54:14.625Z,72.42
2017-03-14T08:55:15.895Z,72.14
2017-03-14T08:56:17.145Z,72.24
2017-03-14T08:57:18.413Z,72.05
2017-03-14T08:58:19.663Z,72.24
2017-03-14T08:59:21.014Z,72.33
2017-03-14T09:00:22.290Z,72.14
2017-03-14T09:01:23.514Z,72.42
2017-03-14T09:02:24.746Z,72.05
2017-03-14T09:03:26.004Z,72.05
2017-03-14T09:04:27.275Z,72.52
2017-03-14T09:05:28.503Z,72.52
2017-03-14T09:06:29.749Z,71.76
2017-03-14T09:07:30.984Z,72.14
2017-03-14T09:08:32.226Z,71.86
2017-03-14T09:09:33.506Z,71.89
2017-03-14T09:10:34.699Z,71.89
2017-03-14T09:11:36.025Z,72.17
2017-03-14T09:12:37.262Z,71.51
2017-03-14T09:13:38.509Z,71.61
2017-03-14T09:14:39.717Z,71.22
2017-03-14T09:15:40.998Z,71.32
2017-03-14T09:16:42.247Z,71.22
2017-03-14T09:17:43.606Z,71.42
2017-03-14T09:18:44.895Z,71.22
2017-03-14T09:19:46.127Z,71.13
2017-03-14T09:20:47.399Z,71.42
2017-03-14T09:21:48.624Z,71.22
2017-03-14T09:22:49.981Z,71.22
2017-03-14T09:23:51.225Z,70.84
2017-03-14T09:24:52.466Z,70.94
2017-03-14T09:25:53.695Z,70.47
2017-03-14T09:26:54.945Z,71.32
2017-03-14T09:27:56.176Z,71.51
2017-03-14T09:28:57.577Z,71.13
2017-03-14T09:29:58.704Z,70.47
2017-03-14T09:31:00.005Z,70.5
2017-03-14T09:32:01.255Z,70.21
2017-03-14T09:33:02.491Z,69.74
2017-03-14T09:34:03.755Z,69.07
2017-03-14T09:35:04.973Z,69.01
2017-03-14T09:36:06.244Z,68.34
2017-03-14T09:37:07.630Z,66.94
2017-03-14T09:38:08.887Z,64.88
2017-03-14T09:39:10.128Z,63.35
2017-03-14T09:40:11.345Z,62.52
2017-03-14T09:41:12.589Z,61.57
2017-03-14T09:42:13.940Z,59.98
2017-03-14T09:43:15.185Z,58.86
2017-03-14T09:44:16.425Z,58
2017-03-14T09:45:17.666Z,56.4
2017-03-14T09:46:18.932Z,55.57
2017-03-14T09:47:20.215Z,53.3
2017-03-14T09:48:21.484Z,52.09
2017-03-14T09:49:22.741Z,51.15
2017-03-14T09:50:23.971Z,49.84
2017-03-14T09:51:25.213Z,48.04
2017-03-14T09:52:26.465Z,46.62
2017-03-14T09:53:27.770Z,45.18
2017-03-14T09:54:28.987Z,44.34
2017-03-14T09:55:30.247Z,42.83
2017-03-14T09:56:31.585Z,41.79
2017-03-14T09:57:32.982Z,40.56
2017-03-14T09:58:34.219Z,39.61
2017-03-14T09:59:35.452Z,38.59
2017-03-14T10:00:36.700Z,37.45
2017-03-14T10:01:37.945Z,35.81
2017-03-14T10:02:39.215Z,35.25
2017-03-14T10:03:40.468Z,35.06
2017-03-14T10:04:41.720Z,34.5
2017-03-14T10:05:42.964Z,33.63
2017-03-14T10:06:44.420Z,32.87
2017-03-14T10:07:45.745Z,32.87
2017-03-14T10:08:46.997Z,32.39
2017-03-14T10:09:48.242Z,32.47
2017-03-14T10:10:49.491Z,33.44
2017-03-14T10:11:50.769Z,33.63
2017-03-14T10:12:52.151Z,33.63
2017-03-14T10:13:53.432Z,33.05
2017-03-14T10:14:54.685Z,32.87
2017-03-14T10:15:55.936Z,32.03
2017-03-14T10:16:57.188Z,31.35
2017-03-14T10:17:58.442Z,30.77
2017-03-14T10:18:59.734Z,30.29
2017-03-14T10:20:01.072Z,30.67
2017-03-14T10:21:02.334Z,30.77
2017-03-14T10:22:03.611Z,30.94
2017-03-14T10:23:04.836Z,31.62
2017-03-14T10:24:06.092Z,32.36
2017-03-14T10:25:07.406Z,32.94
2017-03-14T10:26:08.665Z,33.5
2017-03-14T10:27:09.924Z,33.79
2017-03-14T10:28:11.188Z,34.25
2017-03-14T10:29:12.421Z,35
2017-03-14T10:30:13.692Z,35.7
2017-03-14T10:31:15.112Z,35.42
2017-03-14T10:32:16.280Z,35.24
2017-03-14T10:33:17.526Z,34.38
2017-03-14T10:34:18.783Z,33.15
2017-03-14T10:35:20.036Z,33.42
2017-03-14T10:36:21.296Z,33.91
2017-03-14T10:37:22.553Z,33.25
2017-03-14T10:38:23.798Z,33.15
2017-03-14T10:39:25.060Z,33.15
2017-03-14T10:40:26.320Z,32.57
2017-03-14T10:41:27.572Z,32.29
2017-03-14T10:42:28.810Z,32.1
2017-03-14T10:43:30.087Z,32.2
2017-03-14T10:44:31.462Z,32.86
2017-03-14T10:45:32.697Z,33.33
2017-03-14T10:46:33.956Z,34.84
2017-03-14T10:47:35.206Z,35.12
2017-03-14T10:48:36.442Z,35.5
2017-03-14T10:49:37.788Z,35.6
2017-03-14T10:50:39.078Z,35.22
2017-03-14T10:51:40.337Z,36.25
2017-03-14T10:52:41.572Z,37.3
2017-03-14T10:53:42.850Z,38.53
2017-03-14T10:54:44.089Z,39.56
2017-03-14T10:55:45.535Z,40.7
2017-03-14T10:56:46.682Z,41.27
2017-03-14T10:57:47.939Z,41.2
2017-03-14T10:58:49.188Z,41.94
2017-03-14T10:59:50.446Z,43.1
2017-03-14T11:00:51.723Z,42.88
2017-03-14T11:01:52.953Z,43.07
2017-03-14T11:02:54.239Z,43.63
2017-03-14T11:03:55.627Z,44.4
2017-03-14T11:04:56.929Z,44.95
2017-03-14T11:05:58.183Z,45.52
2017-03-14T11:06:59.430Z,45.9
2017-03-14T11:08:00.686Z,46.19
2017-03-14T11:09:01.981Z,46.58
2017-03-14T11:10:03.235Z,47.22
2017-03-14T11:11:04.485Z,47.8
2017-03-14T11:12:05.737Z,48.44
2017-03-14T11:13:06.980Z,48.93
2017-03-14T11:14:08.221Z,49.98
2017-03-14T11:15:09.523Z,49.86
2017-03-14T11:16:10.783Z,50.05
2017-03-14T11:17:12.029Z,50.62
2017-03-14T11:18:13.281Z,51.2
2017-03-14T11:19:14.546Z,51.01
2017-03-14T11:20:15.774Z,51.29
2017-03-14T11:21:17.022Z,51.68
2017-03-14T11:22:18.312Z,51.48
2017-03-14T11:23:19.574Z,51.58
2017-03-14T11:24:20.827Z,51.97
2017-03-14T11:25:22.063Z,51.1
2017-03-14T11:26:23.328Z,51.68
2017-03-14T11:27:24.563Z,51.58
2017-03-14T11:28:25.800Z,51.97
2017-03-14T11:29:27.058Z,51.58
2017-03-14T11:30:28.309Z,51.87
2017-03-14T11:31:29.552Z,51.87
2017-03-14T11:32:30.835Z,51.97
2017-03-14T11:33:32.178Z,51.42
2017-03-14T11:34:33.431Z,51.13
2017-03-14T11:35:34.713Z,50.74
2017-03-14T11:36:35.952Z,50.29
2017-03-14T11:37:37.186Z,49.24
2017-03-14T11:38:38.429Z,49.24
2017-03-14T11:39:39.674Z,48.75
2017-03-14T11:40:40.917Z,48.75
2017-03-14T11:41:42.152Z,48.57
2017-03-14T11:42:43.407Z,48.3
2017-03-14T11:43:44.635Z,47.92
2017-03-14T11:44:45.910Z,47.92
2017-03-14T11:45:47.132Z,47.53
2017-03-14T11:46:48.387Z,47.44
2017-03-14T11:47:49.668Z,47.82
2017-03-14T11:48:50.927Z,47.85
2017-03-14T11:49:52.179Z,47.08
2017-03-14T11:50:53.412Z,47.17
2017-03-14T11:51:54.668Z,47.08
2017-03-14T11:52:56.001Z,46.5
2017-03-14T11:53:57.255Z,46.14
2017-03-14T11:54:58.520Z,45.18
2017-03-14T11:55:59.763Z,45.36
2017-03-14T11:57:01.019Z,45.83
2017-03-14T11:58:02.399Z,46.14
2017-03-14T11:59:03.773Z,45.67
2017-03-14T12:00:05.035Z,45.47
2017-03-14T12:01:06.255Z,45.74
2017-03-14T12:02:07.511Z,45.67
2017-03-14T12:03:08.746Z,45.86
2017-03-14T12:04:10.034Z,45.76
2017-03-14T12:05:11.393Z,46.05
2017-03-14T12:06:12.682Z,45.86
2017-03-14T12:07:13.899Z,45.47
2017-03-14T12:08:15.204Z,45.28
2017-03-14T12:09:16.478Z,46.05
2017-03-14T12:10:17.703Z,46.05
2017-03-14T12:11:18.986Z,46.34
2017-03-14T12:12:20.299Z,46.43
2017-03-14T12:13:21.578Z,46.24
2017-03-14T12:14:22.787Z,46.34
2017-03-14T12:15:24.056Z,46.22
2017-03-14T12:16:25.408Z,46.41
2017-03-14T12:17:26.586Z,46.89
2017-03-14T12:18:27.834Z,47.37
2017-03-14T12:19:29.104Z,46.98
2017-03-14T12:20:30.323Z,47.44
2017-03-14T12:21:31.574Z,47.73
2017-03-14T12:22:32.821Z,48.52
2017-03-14T12:23:34.090Z,47.94
2017-03-14T12:24:35.339Z,47.94
2017-03-14T12:25:36.608Z,48.13
2017-03-14T12:26:37.834Z,47.85
2017-03-14T12:27:39.076Z,47.85
2017-03-14T12:28:40.384Z,47.94
2017-03-14T12:29:41.639Z,47.56
2017-03-14T12:30:42.892Z,47.75
2017-03-14T12:31:44.171Z,47.85
2017-03-14T12:32:45.423Z,47.66
2017-03-14T12:33:46.661Z,47.56
2017-03-14T12:34:47.914Z,47.94
2017-03-14T12:35:49.164Z,47.75
2017-03-14T12:36:50.411Z,47.85
2017-03-14T12:37:51.660Z,47.66
2017-03-14T12:38:52.947Z,47.68
2017-03-14T12:39:54.211Z,47.01
2017-03-14T12:40:55.460Z,47.49
2017-03-14T12:41:56.695Z,47.2
2017-03-14T12:42:57.953Z,47.37
2017-03-14T12:43:59.213Z,47.75
2017-03-14T12:45:00.446Z,47.85
2017-03-14T12:46:01.691Z,48.52
2017-03-14T12:47:02.961Z,48.71
2017-03-14T12:48:04.297Z,48.52
2017-03-14T12:49:05.551Z,48.43
2017-03-14T12:50:06.877Z,48.33
2017-03-14T12:51:08.130Z,48.71
2017-03-14T12:52:09.369Z,48.61
2017-03-14T12:53:10.665Z,48.78
2017-03-14T12:54:11.936Z,48.97
2017-03-14T12:55:13.192Z,49.65
2017-03-14T12:56:14.440Z,49.93
2017-03-14T12:57:15.689Z,49.65
2017-03-14T12:58:16.948Z,49.65
2017-03-14T12:59:18.204Z,49.93
2017-03-14T13:00:19.494Z,49.84
2017-03-14T13:01:20.788Z,50.22
2017-03-14T13:02:22.053Z,50.12
2017-03-14T13:03:23.317Z,49.84
2017-03-14T13:04:24.576Z,49.07
2017-03-14T13:05:25.825Z,50.03
2017-03-14T13:06:27.064Z,50.1
2017-03-14T13:07:28.318Z,50.03
2017-03-14T13:08:29.568Z,50.12
2017-03-14T13:09:30.822Z,50.87
2017-03-14T13:10:32.064Z,50.58